createdAt,value
2018-02-12T00:00:36.812Z,17.83
2018-02-12T00:01:36.817Z,17.85
2018-02-12T00:02:36.821Z,17.87
2018-02-12T00:03:36.798Z,17.86
2018-02-12T00:04:36.811Z,17.84
2018-02-12T00:05:36.834Z,17.82
2018-02-12T00:06:36.849Z,17.8
2018-02-12T00:07:36.822Z,17.85
2018-02-12T00:08:36.809Z,17.83
2018-02-12T00:09:36.843Z,17.81
2018-02-12T00:10:36.805Z,17.82
2018-02-12T00:11:36.802Z,17.83
2018-02-12T00:12:36.838Z,17.79
2018-02-12T00:13:36.821Z,17.78
2018-02-12T00:14:36.833Z,17.79
2018-02-12T00:15:36.805Z,17.78
2018-02-12T00:16:36.797Z,17.8
2018-02-12T00:17:36.809Z,17.78
2018-02-12T00:18:36.821Z,17.76
2018-02-12T00:19:36.801Z,17.75
2018-02-12T00:20:36.813Z,17.75
2018-02-12T00:21:36.833Z,17.77
2018-02-12T00:22:36.839Z,17.77
2018-02-12T00:23:36.821Z,17.76
2018-02-12T00:24:36.831Z,17.75
2018-02-12T00:25:36.802Z,17.75
2018-02-12T00:26:36.799Z,17.75
2018-02-12T00:27:36.807Z,17.73
2018-02-12T00:28:36.806Z,17.78
2018-02-12T00:29:36.805Z,17.76
2018-02-12T00:30:36.799Z,17.73
2018-02-12T00:31:36.794Z,17.75
2018-02-12T00:32:37.072Z,17.74
2018-02-12T00:33:36.796Z,17.72
2018-02-12T00:34:36.803Z,17.72
2018-02-12T00:35:36.806Z,17.71
2018-02-12T00:36:36.802Z,17.73
2018-02-12T00:37:36.857Z,17.7
2018-02-12T00:38:36.805Z,17.72
2018-02-12T00:39:36.799Z,17.71
2018-02-12T00:40:36.824Z,17.68
2018-02-12T00:41:36.801Z,17.7
2018-02-12T00:42:36.837Z,17.69
2018-02-12T00:43:36.775Z,17.69
2018-02-12T00:44:36.784Z,17.65
2018-02-12T00:45:36.802Z,17.67
2018-02-12T00:46:36.757Z,17.69
2018-02-12T00:47:36.853Z,17.68
2018-02-12T00:48:36.792Z,17.7
2018-02-12T00:49:36.804Z,17.68
2018-02-12T00:50:36.760Z,17.67
2018-02-12T00:51:36.867Z,17.66
2018-02-12T00:52:36.805Z,17.67
2018-02-12T00:53:36.901Z,17.67
2018-02-12T00:54:36.796Z,17.66
2018-02-12T00:55:36.777Z,17.63
2018-02-12T00:56:36.777Z,17.67
2018-02-12T00:57:36.828Z,17.63
2018-02-12T00:58:36.784Z,17.61
2018-02-12T00:59:36.790Z,17.62
2018-02-12T01:00:36.815Z,17.62
2018-02-12T01:01:36.798Z,17.62
2018-02-12T01:02:36.787Z,17.61
2018-02-12T01:03:36.792Z,17.61
2018-02-12T01:04:36.802Z,17.6
2018-02-12T01:05:36.788Z,17.61
2018-02-12T01:06:36.797Z,17.6
2018-02-12T01:07:36.788Z,17.57
2018-02-12T01:08:36.821Z,17.6
2018-02-12T01:09:36.855Z,17.59
2018-02-12T01:10:36.788Z,17.58
2018-02-12T01:11:36.782Z,17.58
2018-02-12T01:12:36.790Z,17.59
2018-02-12T01:13:36.842Z,17.6
2018-02-12T01:14:36.832Z,17.61
2018-02-12T01:15:36.784Z,17.6
2018-02-12T01:16:36.791Z,17.58
2018-02-12T01:17:36.775Z,17.6
2018-02-12T01:18:36.804Z,17.58
2018-02-12T01:19:36.823Z,17.57
2018-02-12T01:20:36.790Z,17.55
2018-02-12T01:21:36.788Z,17.58
2018-02-12T01:22:36.793Z,17.55
2018-02-12T01:23:36.780Z,17.55
2018-02-12T01:24:36.778Z,17.55
2018-02-12T01:25:36.786Z,17.54
2018-02-12T01:26:36.779Z,17.54
2018-02-12T01:27:36.787Z,17.54
2018-02-12T01:28:36.777Z,17.5
2018-02-12T01:29:36.788Z,17.53
2018-02-12T01:30:36.789Z,17.52
2018-02-12T01:31:36.799Z,17.55
2018-02-12T01:32:36.778Z,17.53
2018-02-12T01:33:36.824Z,17.5
2018-02-12T01:34:36.793Z,17.48
2018-02-12T01:35:36.797Z,17.5
2018-02-12T01:36:36.745Z,17.51
2018-02-12T01:37:36.779Z,17.51
2018-02-12T01:38:36.813Z,17.5
2018-02-12T01:39:36.816Z,17.5
2018-02-12T01:40:36.801Z,17.51
2018-02-12T01:41:36.791Z,17.5
2018-02-12T01:42:36.782Z,17.49
2018-02-12T01:43:36.883Z,17.47
2018-02-12T01:44:36.797Z,17.48
2018-02-12T01:45:36.779Z,17.48
2018-02-12T01:46:36.789Z,17.47
2018-02-12T01:47:36.776Z,17.46
2018-02-12T01:48:36.817Z,17.48
2018-02-12T01:49:36.801Z,17.46
2018-02-12T01:50:36.777Z,17.46
2018-02-12T01:51:36.774Z,17.44
2018-02-12T01:52:36.772Z,17.43
2018-02-12T01:53:36.772Z,17.45
2018-02-12T01:54:36.813Z,17.45
2018-02-12T01:55:36.783Z,17.42
2018-02-12T01:56:36.778Z,17.44
2018-02-12T01:57:36.776Z,17.44
2018-02-12T01:58:36.807Z,17.42
2018-02-12T01:59:36.764Z,17.44
2018-02-12T02:00:36.765Z,17.45
2018-02-12T02:01:36.769Z,17.42
2018-02-12T02:02:36.768Z,17.41
2018-02-12T02:03:36.788Z,17.4
2018-02-12T02:04:36.782Z,17.4
2018-02-12T02:05:36.787Z,17.4
2018-02-12T02:06:36.778Z,17.39
2018-02-12T02:07:36.761Z,17.4
2018-02-12T02:08:36.775Z,17.41
2018-02-12T02:09:36.775Z,17.4
2018-02-12T02:10:36.782Z,17.4
2018-02-12T02:11:36.767Z,17.39
2018-02-12T02:12:36.788Z,17.41
2018-02-12T02:13:36.771Z,17.39
2018-02-12T02:14:36.812Z,17.41
2018-02-12T02:15:36.783Z,17.37
2018-02-12T02:16:36.777Z,17.38
2018-02-12T02:17:36.794Z,17.37
2018-02-12T02:18:36.781Z,17.37
2018-02-12T02:19:36.788Z,17.38
2018-02-12T02:20:36.758Z,17.36
2018-02-12T02:21:36.757Z,17.36
2018-02-12T02:22:36.791Z,17.34
2018-02-12T02:23:36.774Z,17.36
2018-02-12T02:24:36.766Z,17.36
2018-02-12T02:25:36.758Z,17.35
2018-02-12T02:26:36.770Z,17.35
2018-02-12T02:27:36.771Z,17.37
2018-02-12T02:28:36.761Z,17.37
2018-02-12T02:29:36.817Z,17.34
2018-02-12T02:30:36.780Z,17.35
2018-02-12T02:31:36.785Z,17.35
2018-02-12T02:32:36.755Z,17.32
2018-02-12T02:33:36.766Z,17.31
2018-02-12T02:34:36.805Z,17.29
2018-02-12T02:35:36.785Z,17.31
2018-02-12T02:36:36.764Z,17.3
2018-02-12T02:37:36.762Z,17.32
2018-02-12T02:38:36.753Z,17.29
2018-02-12T02:39:36.791Z,17.3
2018-02-12T02:40:36.758Z,17.29
2018-02-12T02:41:36.754Z,17.29
2018-02-12T02:42:36.754Z,17.32
2018-02-12T02:43:36.761Z,17.33
2018-02-12T02:44:36.770Z,17.31
2018-02-12T02:45:36.773Z,17.3
2018-02-12T02:46:36.735Z,17.32
2018-02-12T02:47:36.761Z,17.27
2018-02-12T02:48:36.765Z,17.28
2018-02-12T02:49:36.755Z,17.27
2018-02-12T02:50:36.805Z,17.29
2018-02-12T02:51:36.728Z,17.27
2018-02-12T02:52:36.749Z,17.28
2018-02-12T02:53:36.843Z,17.28
2018-02-12T02:54:36.832Z,17.28
2018-02-12T02:55:36.964Z,17.27
2018-02-12T02:56:36.764Z,17.25
2018-02-12T02:57:36.794Z,17.24
2018-02-12T02:58:36.801Z,17.26
2018-02-12T02:59:36.766Z,17.24
2018-02-12T03:00:36.789Z,17.24
2018-02-12T03:01:36.753Z,17.23
2018-02-12T03:02:36.745Z,17.21
2018-02-12T03:03:36.780Z,17.22
2018-02-12T03:04:36.807Z,17.2
2018-02-12T03:05:36.754Z,17.22
2018-02-12T03:06:36.744Z,17.23
2018-02-12T03:07:36.757Z,17.21
2018-02-12T03:08:36.796Z,17.18
2018-02-12T03:09:36.744Z,17.19
2018-02-12T03:10:36.757Z,17.2
2018-02-12T03:11:36.754Z,17.19
2018-02-12T03:12:36.746Z,17.2
2018-02-12T03:13:36.759Z,17.19
2018-02-12T03:14:36.738Z,17.16
2018-02-12T03:15:36.766Z,17.18
2018-02-12T03:16:36.730Z,17.18
2018-02-12T03:17:36.763Z,17.16
2018-02-12T03:18:36.737Z,17.18
2018-02-12T03:19:36.771Z,17.16
2018-02-12T03:20:36.740Z,17.16
2018-02-12T03:21:36.755Z,17.15
2018-02-12T03:22:36.735Z,17.14
2018-02-12T03:23:36.730Z,17.14
2018-02-12T03:24:36.701Z,17.14
2018-02-12T03:25:36.746Z,17.15
2018-02-12T03:26:36.775Z,17.1
2018-02-12T03:27:36.717Z,17.17
2018-02-12T03:28:36.719Z,17.15
2018-02-12T03:29:36.756Z,17.18
2018-02-12T03:30:36.742Z,17.16
2018-02-12T03:31:36.737Z,17.14
2018-02-12T03:32:36.757Z,17.15
2018-02-12T03:33:36.764Z,17.14
2018-02-12T03:34:36.726Z,17.15
2018-02-12T03:35:36.754Z,17.14
2018-02-12T03:36:36.743Z,17.13
2018-02-12T03:37:36.771Z,17.12
2018-02-12T03:38:36.732Z,17.1
2018-02-12T03:39:36.746Z,17.12
2018-02-12T03:40:36.745Z,17.09
2018-02-12T03:41:36.755Z,17.07
2018-02-12T03:42:36.725Z,17.07
2018-02-12T03:43:36.728Z,17.09
2018-02-12T03:44:36.737Z,17.08
2018-02-12T03:45:36.747Z,17.1
2018-02-12T03:46:36.763Z,17.09
2018-02-12T03:47:36.740Z,17.1
2018-02-12T03:48:36.754Z,17.08
2018-02-12T03:49:36.744Z,17.07
2018-02-12T03:50:36.711Z,17.09
2018-02-12T03:51:36.746Z,17.1
2018-02-12T03:52:36.728Z,17.09
2018-02-12T03:53:36.787Z,17.11
2018-02-12T03:54:36.726Z,17.08
2018-02-12T03:55:36.730Z,17.07
2018-02-12T03:56:36.734Z,17.08
2018-02-12T03:57:36.730Z,17.07
2018-02-12T03:58:36.728Z,17.08
2018-02-12T03:59:36.764Z,17.07
2018-02-12T04:00:36.729Z,17.05
2018-02-12T04:01:36.721Z,17.08
2018-02-12T04:02:36.750Z,17.09
2018-02-12T04:03:36.718Z,17.09
2018-02-12T04:04:36.744Z,17.06
2018-02-12T04:05:36.742Z,17.06
2018-02-12T04:06:36.726Z,17.07
2018-02-12T04:07:36.730Z,17.09
2018-02-12T04:08:36.718Z,17.05
2018-02-12T04:09:36.811Z,17.05
2018-02-12T04:10:36.714Z,17.06
2018-02-12T04:11:36.710Z,17.04
2018-02-12T04:12:36.767Z,17.04
2018-02-12T04:13:36.726Z,17.03
2018-02-12T04:14:36.736Z,17.04
2018-02-12T04:15:36.832Z,17.05
2018-02-12T04:16:36.736Z,17.06
2018-02-12T04:17:36.773Z,17.04
2018-02-12T04:18:36.737Z,17.04
2018-02-12T04:19:36.723Z,17.02
2018-02-12T04:20:36.738Z,17.01
2018-02-12T04:21:36.702Z,17.01
2018-02-12T04:22:36.727Z,17.01
2018-02-12T04:23:36.738Z,16.99
2018-02-12T04:24:36.757Z,17
2018-02-12T04:25:36.727Z,16.99
2018-02-12T04:26:36.711Z,17
2018-02-12T04:27:36.711Z,16.98
2018-02-12T04:28:36.745Z,17.01
2018-02-12T04:29:36.737Z,16.99
2018-02-12T04:30:36.989Z,17
2018-02-12T04:31:36.847Z,16.99
2018-02-12T04:32:36.744Z,16.99
2018-02-12T04:33:36.741Z,17.01
2018-02-12T04:34:36.744Z,17.01
2018-02-12T04:35:36.750Z,16.99
2018-02-12T04:36:36.758Z,16.97
2018-02-12T04:37:36.745Z,16.97
2018-02-12T04:38:36.726Z,16.96
2018-02-12T04:39:36.815Z,16.98
2018-02-12T04:40:36.704Z,16.97
2018-02-12T04:41:36.739Z,16.99
2018-02-12T04:42:36.705Z,16.94
2018-02-12T04:43:36.710Z,16.95
2018-02-12T04:44:36.704Z,16.95
2018-02-12T04:45:36.736Z,16.95
2018-02-12T04:46:36.737Z,16.94
2018-02-12T04:47:36.810Z,16.96
2018-02-12T04:48:36.678Z,16.95
2018-02-12T04:49:36.720Z,16.95
2018-02-12T04:50:36.727Z,16.95
2018-02-12T04:51:36.759Z,16.96
2018-02-12T04:52:36.709Z,16.97
2018-02-12T04:53:36.703Z,16.96
2018-02-12T04:54:36.821Z,16.96
2018-02-12T04:55:36.963Z,16.97
2018-02-12T04:56:36.702Z,16.96
2018-02-12T04:57:36.730Z,16.97
2018-02-12T04:58:36.716Z,16.98
2018-02-12T04:59:36.726Z,17
2018-02-12T05:00:36.711Z,16.98
2018-02-12T05:01:36.695Z,16.97
2018-02-12T05:02:36.699Z,16.98
2018-02-12T05:03:36.924Z,16.99
2018-02-12T05:04:36.716Z,16.97
2018-02-12T05:05:36.747Z,16.98
2018-02-12T05:06:36.737Z,17.02
2018-02-12T05:07:36.705Z,17.02
2018-02-12T05:08:36.733Z,17.03
2018-02-12T05:09:36.716Z,17.04
2018-02-12T05:10:36.743Z,17.04
2018-02-12T05:11:36.825Z,17.05
2018-02-12T05:12:36.706Z,17.06
2018-02-12T05:13:36.705Z,17.08
2018-02-12T05:14:36.702Z,17.09
2018-02-12T05:15:36.780Z,17.1
2018-02-12T05:16:36.724Z,17.12
2018-02-12T05:17:36.694Z,17.12
2018-02-12T05:18:36.704Z,17.14
2018-02-12T05:19:36.770Z,17.17
2018-02-12T05:20:36.704Z,17.17
2018-02-12T05:21:36.689Z,17.18
2018-02-12T05:22:36.698Z,17.18
2018-02-12T05:23:36.700Z,17.19
2018-02-12T05:24:36.696Z,17.2
2018-02-12T05:25:36.705Z,17.22
2018-02-12T05:26:36.732Z,17.21
2018-02-12T05:27:36.667Z,17.24
2018-02-12T05:28:36.693Z,17.24
2018-02-12T05:29:36.725Z,17.26
2018-02-12T05:30:36.703Z,17.28
2018-02-12T05:31:36.736Z,17.28
2018-02-12T05:32:36.724Z,17.31
2018-02-12T05:33:36.691Z,17.32
2018-02-12T05:34:36.703Z,17.33
2018-02-12T05:35:36.694Z,17.35
2018-02-12T05:36:36.694Z,17.38
2018-02-12T05:37:36.705Z,17.39
2018-02-12T05:38:36.691Z,17.4
2018-02-12T05:39:36.691Z,17.43
2018-02-12T05:40:36.696Z,17.44
2018-02-12T05:41:36.755Z,17.46
2018-02-12T05:42:36.700Z,17.46
2018-02-12T05:43:36.697Z,17.49
2018-02-12T05:44:36.693Z,17.51
2018-02-12T05:45:36.709Z,17.52
2018-02-12T05:46:36.704Z,17.54
2018-02-12T05:47:36.693Z,17.55
2018-02-12T05:48:36.699Z,17.57
2018-02-12T05:49:36.689Z,17.58
2018-02-12T05:50:36.691Z,17.6
2018-02-12T05:51:36.712Z,17.62
2018-02-12T05:52:36.688Z,17.62
2018-02-12T05:53:36.690Z,17.64
2018-02-12T05:54:36.686Z,17.66
2018-02-12T05:55:36.676Z,17.67
2018-02-12T05:56:36.742Z,17.68
2018-02-12T05:57:36.688Z,17.7
2018-02-12T05:58:36.689Z,17.71
2018-02-12T05:59:36.692Z,17.73
2018-02-12T06:00:36.699Z,17.74
2018-02-12T06:01:36.696Z,17.76
2018-02-12T06:02:36.727Z,17.77
2018-02-12T06:03:36.681Z,17.77
2018-02-12T06:04:36.701Z,17.79
2018-02-12T06:05:36.676Z,17.79
2018-02-12T06:06:36.713Z,17.81
2018-02-12T06:07:36.718Z,17.83
2018-02-12T06:08:36.675Z,17.85
2018-02-12T06:09:36.672Z,17.86
2018-02-12T06:10:36.682Z,17.87
2018-02-12T06:11:36.682Z,17.88
2018-02-12T06:12:36.795Z,17.88
2018-02-12T06:13:36.723Z,17.9
2018-02-12T06:14:36.693Z,17.92
2018-02-12T06:15:36.536Z,17.92
2018-02-12T06:16:36.688Z,17.93
2018-02-12T06:17:36.695Z,17.95
2018-02-12T06:18:36.682Z,17.97
2018-02-12T06:19:36.680Z,17.97
2018-02-12T06:20:36.662Z,17.99
2018-02-12T06:21:36.690Z,18
2018-02-12T06:22:36.699Z,18.01
2018-02-12T06:23:36.690Z,18.03
2018-02-12T06:24:36.683Z,18.05
2018-02-12T06:25:36.708Z,18.05
2018-02-12T06:26:36.660Z,18.07
2018-02-12T06:27:36.693Z,18.08
2018-02-12T06:28:36.674Z,18.09
2018-02-12T06:29:36.708Z,18.1
2018-02-12T06:30:36.689Z,18.11
2018-02-12T06:31:36.676Z,18.12
2018-02-12T06:32:36.684Z,18.14
2018-02-12T06:33:36.709Z,18.14
2018-02-12T06:34:36.679Z,18.15
2018-02-12T06:35:36.681Z,18.17
2018-02-12T06:36:36.718Z,18.18
2018-02-12T06:37:36.686Z,18.19
2018-02-12T06:38:36.725Z,18.19
2018-02-12T06:39:36.711Z,18.21
2018-02-12T06:40:36.676Z,18.21
2018-02-12T06:41:36.690Z,18.23
2018-02-12T06:42:36.671Z,18.24
2018-02-12T06:43:36.677Z,18.25
2018-02-12T06:44:36.672Z,18.26
2018-02-12T06:45:36.679Z,18.26
2018-02-12T06:46:36.699Z,18.28
2018-02-12T06:47:36.683Z,18.29
2018-02-12T06:48:36.658Z,18.29
2018-02-12T06:49:36.660Z,18.31
2018-02-12T06:50:36.665Z,18.32
2018-02-12T06:51:36.714Z,18.33
2018-02-12T06:52:36.700Z,18.34
2018-02-12T06:53:36.665Z,18.35
2018-02-12T06:54:36.667Z,18.36
2018-02-12T06:55:36.774Z,18.37
2018-02-12T06:56:36.822Z,18.38
2018-02-12T06:57:36.668Z,18.38
2018-02-12T06:58:36.704Z,18.4
2018-02-12T06:59:36.721Z,18.41
2018-02-12T07:00:36.666Z,18.43
2018-02-12T07:01:36.672Z,18.43
2018-02-12T07:02:36.676Z,18.44
2018-02-12T07:03:36.637Z,18.43
2018-02-12T07:04:36.687Z,18.46
2018-02-12T07:05:36.672Z,18.45
2018-02-12T07:06:36.682Z,18.47
2018-02-12T07:07:36.937Z,18.47
2018-02-12T07:08:36.657Z,18.47
2018-02-12T07:09:36.667Z,18.48
2018-02-12T07:10:36.656Z,18.5
2018-02-12T07:11:36.641Z,18.51
2018-02-12T07:12:36.676Z,18.52
2018-02-12T07:13:36.711Z,18.52
2018-02-12T07:14:36.659Z,18.52
2018-02-12T07:15:36.666Z,18.53
2018-02-12T07:16:36.664Z,18.53
2018-02-12T07:17:36.658Z,18.53
2018-02-12T07:18:36.643Z,18.53
2018-02-12T07:19:36.751Z,18.53
2018-02-12T07:20:36.663Z,18.55
2018-02-12T07:21:36.657Z,18.56
2018-02-12T07:22:36.674Z,18.56
2018-02-12T07:23:36.692Z,18.57
2018-02-12T07:24:36.684Z,18.57
2018-02-12T07:25:36.649Z,18.57
2018-02-12T07:26:36.653Z,18.58
2018-02-12T07:27:36.659Z,18.59
2018-02-12T07:28:36.640Z,18.59
2018-02-12T07:29:36.647Z,18.6
2018-02-12T07:30:36.671Z,18.6
2018-02-12T07:31:36.658Z,18.61
2018-02-12T07:32:36.637Z,18.62
2018-02-12T07:33:36.658Z,18.62
2018-02-12T07:34:36.636Z,18.63
2018-02-12T07:35:36.676Z,18.63
2018-02-12T07:36:36.656Z,18.63
2018-02-12T07:37:36.675Z,18.64
2018-02-12T07:38:36.653Z,18.64
2018-02-12T07:39:36.652Z,18.66
2018-02-12T07:40:36.640Z,18.66
2018-02-12T07:41:36.669Z,18.67
2018-02-12T07:42:36.665Z,18.66
2018-02-12T07:43:36.782Z,18.67
2018-02-12T07:44:36.678Z,18.68
2018-02-12T07:45:36.649Z,18.69
2018-02-12T07:46:36.640Z,18.7
2018-02-12T07:47:36.669Z,18.7
2018-02-12T07:48:36.680Z,18.7
2018-02-12T07:49:36.650Z,18.7
2018-02-12T07:50:36.689Z,18.7
2018-02-12T07:51:36.651Z,18.71
2018-02-12T07:52:36.688Z,18.71
2018-02-12T07:53:36.667Z,18.71
2018-02-12T07:54:36.909Z,18.71
2018-02-12T07:55:36.641Z,18.71
2018-02-12T07:56:36.640Z,18.72
2018-02-12T07:57:36.650Z,18.72
2018-02-12T07:58:36.642Z,18.72
2018-02-12T07:59:36.665Z,18.72
2018-02-12T08:00:36.676Z,18.72
2018-02-12T08:01:36.650Z,18.72
2018-02-12T08:02:36.633Z,18.73
2018-02-12T08:03:36.652Z,18.73
2018-02-12T08:04:36.657Z,18.73
2018-02-12T08:05:36.654Z,18.73
2018-02-12T08:06:36.662Z,18.74
2018-02-12T08:07:36.675Z,18.74
2018-02-12T08:08:36.680Z,18.75
2018-02-12T08:09:36.664Z,18.75
2018-02-12T08:10:36.674Z,18.75
2018-02-12T08:11:36.639Z,18.75
2018-02-12T08:12:36.641Z,18.75
2018-02-12T08:13:36.625Z,18.75
2018-02-12T08:14:36.655Z,18.76
2018-02-12T08:15:36.661Z,18.77
2018-02-12T08:16:36.645Z,18.78
2018-02-12T08:17:36.643Z,18.78
2018-02-12T08:18:36.647Z,18.77
2018-02-12T08:19:36.653Z,18.78
2018-02-12T08:20:36.647Z,18.78
2018-02-12T08:21:36.673Z,18.77
2018-02-12T08:22:36.627Z,18.79
2018-02-12T08:23:36.680Z,18.79
2018-02-12T08:24:36.632Z,18.8
2018-02-12T08:25:36.653Z,18.8
2018-02-12T08:26:36.671Z,18.8
2018-02-12T08:27:36.634Z,18.8
2018-02-12T08:28:36.634Z,18.8
2018-02-12T08:29:36.634Z,18.81
2018-02-12T08:30:36.666Z,18.81
2018-02-12T08:31:36.633Z,18.81
2018-02-12T08:32:36.652Z,18.81
2018-02-12T08:33:36.630Z,18.82
2018-02-12T08:34:36.632Z,18.83
2018-02-12T08:35:36.664Z,18.83
2018-02-12T08:36:36.665Z,18.84
2018-02-12T08:37:36.624Z,18.84
2018-02-12T08:38:36.633Z,18.85
2018-02-12T08:39:36.638Z,18.85
2018-02-12T08:40:36.648Z,18.85
2018-02-12T08:41:36.694Z,18.86
2018-02-12T08:42:36.625Z,18.85
2018-02-12T08:43:36.641Z,18.86
2018-02-12T08:44:36.617Z,18.86
2018-02-12T08:45:36.662Z,18.87
2018-02-12T08:46:36.636Z,18.87
2018-02-12T08:47:36.688Z,18.88
2018-02-12T08:48:36.679Z,18.88
2018-02-12T08:49:36.634Z,18.89
2018-02-12T08:50:36.668Z,18.9
2018-02-12T08:51:36.626Z,18.89
2018-02-12T08:52:36.626Z,18.94
2018-02-12T08:53:36.635Z,18.94
2018-02-12T08:54:36.637Z,18.95
2018-02-12T08:55:36.653Z,18.97
2018-02-12T08:56:36.711Z,18.97
2018-02-12T08:57:36.639Z,19.02
2018-02-12T08:58:36.658Z,19.01
2018-02-12T08:59:36.624Z,19.03
2018-02-12T09:00:36.627Z,19.05
2018-02-12T09:01:36.654Z,19.06
2018-02-12T09:02:36.664Z,19.08
2018-02-12T09:03:36.663Z,19.09
2018-02-12T09:04:36.663Z,19.11
2018-02-12T09:05:36.714Z,19.11
2018-02-12T09:06:36.617Z,19.12
2018-02-12T09:07:36.631Z,19.14
2018-02-12T09:08:36.626Z,19.15
2018-02-12T09:09:36.622Z,19.13
2018-02-12T09:10:36.594Z,19.14
2018-02-12T09:11:36.618Z,19.15
2018-02-12T09:12:36.616Z,19.18
2018-02-12T09:13:36.621Z,19.19
2018-02-12T09:14:36.646Z,19.19
2018-02-12T09:15:36.624Z,19.3
2018-02-12T09:16:36.648Z,19.32
2018-02-12T09:17:36.639Z,19.41
2018-02-12T09:18:36.638Z,19.4
2018-02-12T09:19:36.644Z,19.38
2018-02-12T09:20:36.592Z,19.4
2018-02-12T09:21:36.614Z,19.4
2018-02-12T09:22:36.606Z,19.41
2018-02-12T09:23:36.680Z,19.42
2018-02-12T09:24:36.658Z,19.42
2018-02-12T09:25:36.648Z,19.46
2018-02-12T09:26:36.656Z,19.47
2018-02-12T09:27:36.618Z,19.46
2018-02-12T09:28:36.612Z,19.47
2018-02-12T09:29:36.618Z,19.45
2018-02-12T09:30:36.631Z,19.46
2018-02-12T09:31:36.640Z,19.44
2018-02-12T09:32:36.585Z,19.46
2018-02-12T09:33:36.644Z,19.46
2018-02-12T09:34:36.588Z,19.47
2018-02-12T09:35:36.613Z,19.47
2018-02-12T09:36:36.648Z,19.47
2018-02-12T09:37:36.632Z,19.48
2018-02-12T09:38:36.609Z,19.48
2018-02-12T09:39:36.584Z,19.48
2018-02-12T09:40:36.675Z,19.48
2018-02-12T09:41:36.634Z,19.48
2018-02-12T09:42:36.609Z,19.5
2018-02-12T09:43:36.596Z,19.49
2018-02-12T09:44:36.611Z,19.5
2018-02-12T09:45:36.607Z,19.54
2018-02-12T09:46:36.655Z,19.57
2018-02-12T09:47:36.648Z,19.56
2018-02-12T09:48:36.674Z,19.55
2018-02-12T09:49:36.586Z,19.56
2018-02-12T09:50:36.613Z,19.56
2018-02-12T09:51:36.600Z,19.57
2018-02-12T09:52:36.623Z,19.58
2018-02-12T09:53:36.599Z,19.58
2018-02-12T09:54:36.604Z,19.58
2018-02-12T09:55:36.606Z,19.58
2018-02-12T09:56:36.628Z,19.58
2018-02-12T09:57:36.586Z,19.59
2018-02-12T09:58:36.596Z,19.58
2018-02-12T09:59:36.618Z,19.6
2018-02-12T10:00:36.620Z,19.6
2018-02-12T10:01:36.658Z,19.6
2018-02-12T10:02:36.599Z,19.61
2018-02-12T10:03:36.583Z,19.61
2018-02-12T10:04:36.618Z,19.6
2018-02-12T10:05:36.604Z,19.61
2018-02-12T10:06:36.616Z,19.62
2018-02-12T10:07:36.600Z,19.63
2018-02-12T10:08:36.612Z,19.62
2018-02-12T10:09:36.597Z,19.64
2018-02-12T10:10:36.577Z,19.65
2018-02-12T10:11:36.664Z,19.64
2018-02-12T10:12:36.617Z,19.65
2018-02-12T10:13:36.618Z,19.65
2018-02-12T10:14:36.616Z,19.65
2018-02-12T10:15:36.611Z,19.65
2018-02-12T10:16:36.624Z,19.68
2018-02-12T10:17:36.636Z,19.68
2018-02-12T10:18:36.617Z,19.69
2018-02-12T10:19:36.601Z,19.7
2018-02-12T10:20:36.626Z,19.69
2018-02-12T10:21:36.654Z,19.71
2018-02-12T10:22:36.645Z,19.71
2018-02-12T10:23:36.629Z,19.72
2018-02-12T10:24:37.106Z,19.72
2018-02-12T10:25:36.599Z,19.74
2018-02-12T10:26:36.611Z,19.74
2018-02-12T10:27:36.644Z,19.73
2018-02-12T10:28:36.597Z,19.76
2018-02-12T10:29:36.655Z,19.76
2018-02-12T10:30:36.615Z,19.77
2018-02-12T10:31:36.592Z,19.76
2018-02-12T10:32:36.620Z,19.76
2018-02-12T10:33:36.588Z,19.75
2018-02-12T10:34:36.659Z,19.75
2018-02-12T10:35:36.623Z,19.77
2018-02-12T10:36:36.588Z,19.77
2018-02-12T10:37:36.636Z,19.78
2018-02-12T10:38:36.606Z,19.76
2018-02-12T10:39:36.595Z,19.77
2018-02-12T10:40:36.588Z,19.79
2018-02-12T10:41:36.634Z,19.79
2018-02-12T10:42:36.599Z,19.8
2018-02-12T10:43:36.601Z,19.81
2018-02-12T10:44:36.611Z,19.82
2018-02-12T10:45:36.583Z,19.84
2018-02-12T10:46:36.855Z,19.86
2018-02-12T10:47:36.597Z,19.86
2018-02-12T10:48:36.586Z,19.85
2018-02-12T10:49:36.593Z,19.86
2018-02-12T10:50:36.598Z,19.88
2018-02-12T10:51:36.613Z,19.88
2018-02-12T10:52:36.591Z,19.89
2018-02-12T10:53:36.597Z,19.88
2018-02-12T10:54:36.582Z,19.9
2018-02-12T10:55:36.625Z,19.9
2018-02-12T10:56:36.647Z,19.91
2018-02-12T10:57:36.704Z,19.86
2018-02-12T10:58:36.588Z,19.83
2018-02-12T10:59:36.563Z,19.82
2018-02-12T11:00:36.576Z,19.8
2018-02-12T11:01:36.596Z,19.81
2018-02-12T11:02:36.634Z,19.84
2018-02-12T11:03:36.594Z,19.84
2018-02-12T11:04:36.591Z,19.8
2018-02-12T11:05:36.606Z,19.82
2018-02-12T11:06:36.567Z,19.79
2018-02-12T11:07:36.622Z,19.8
2018-02-12T11:08:36.616Z,19.8
2018-02-12T11:09:36.607Z,19.8
2018-02-12T11:10:36.602Z,19.78
2018-02-12T11:11:36.613Z,19.8
2018-02-12T11:12:36.629Z,19.8
2018-02-12T11:13:36.607Z,19.81
2018-02-12T11:14:36.572Z,19.8
2018-02-12T11:15:36.610Z,19.79
2018-02-12T11:16:36.659Z,19.79
2018-02-12T11:17:36.903Z,19.77
2018-02-12T11:18:36.631Z,19.73
2018-02-12T11:19:36.690Z,19.75
2018-02-12T11:20:36.687Z,19.74
2018-02-12T11:21:36.627Z,19.75
2018-02-12T11:22:36.672Z,19.75
2018-02-12T11:23:36.694Z,19.76
2018-02-12T11:24:36.608Z,19.76
2018-02-12T11:25:36.610Z,19.78
2018-02-12T11:26:36.629Z,19.78
2018-02-12T11:27:36.606Z,19.79
2018-02-12T11:28:36.607Z,19.79
2018-02-12T11:29:36.607Z,19.77
2018-02-12T11:30:36.606Z,19.76
2018-02-12T11:31:36.591Z,19.76
2018-02-12T11:32:36.617Z,19.78
2018-02-12T11:33:36.580Z,19.78
2018-02-12T11:34:36.668Z,19.79
2018-02-12T11:35:36.665Z,19.79
2018-02-12T11:36:36.684Z,19.8
2018-02-12T11:37:36.628Z,19.86
2018-02-12T11:38:36.607Z,19.85
2018-02-12T11:39:36.580Z,19.85
2018-02-12T11:40:36.673Z,19.86
2018-02-12T11:41:36.599Z,19.86
2018-02-12T11:42:36.722Z,19.95
2018-02-12T11:43:36.618Z,19.93
2018-02-12T11:44:00.395Z,20.13
2018-02-12T11:45:04.995Z,20.16
2018-02-12T11:46:05.031Z,20.31
2018-02-12T12:08:45.514Z,20.36
2018-02-12T12:09:45.311Z,20.28
2018-02-12T12:10:45.343Z,20.25
2018-02-12T12:11:45.293Z,20.22
2018-02-12T12:12:45.304Z,20.21
2018-02-12T12:13:45.396Z,20.21
2018-02-12T12:14:48.639Z,20.25
2018-02-12T12:15:48.483Z,20.19
2018-02-12T12:16:54.164Z,20.18
2018-02-12T12:17:55.511Z,20.16
2018-02-12T12:18:56.988Z,20.16
2018-02-12T12:19:49.573Z,20.19
2018-02-12T12:20:49.416Z,20.15
2018-02-12T12:21:49.416Z,20.14
2018-02-12T12:22:49.418Z,20.15
2018-02-12T12:23:41.609Z,20.2
2018-02-12T12:24:41.429Z,20.16
2018-02-12T12:25:41.720Z,20.15
2018-02-12T12:26:54.244Z,20.18
2018-02-12T12:27:54.080Z,20.1
2018-02-12T12:28:55.184Z,20.07
2018-02-12T12:29:54.078Z,20.05
2018-02-12T12:30:54.080Z,20.07
2018-02-12T12:31:54.080Z,20.06
2018-02-12T12:32:54.072Z,20.06
2018-02-12T12:33:54.154Z,20.05
2018-02-12T12:34:03.491Z,20.08
2018-02-12T12:35:03.390Z,20.04
2018-02-12T12:36:03.317Z,20.04
2018-02-12T12:37:03.318Z,20.02
2018-02-12T12:38:03.356Z,20.02
2018-02-12T12:39:03.320Z,19.95
2018-02-12T12:40:03.346Z,19.93
2018-02-12T12:41:03.325Z,19.91
2018-02-12T12:42:03.323Z,19.89
2018-02-12T12:43:03.317Z,19.88
2018-02-12T12:44:03.325Z,19.86
2018-02-12T12:45:03.586Z,19.85
2018-02-12T12:46:03.321Z,19.83
2018-02-12T12:47:03.327Z,19.81
2018-02-12T12:48:03.331Z,19.8
2018-02-12T12:49:03.323Z,19.77
2018-02-12T12:50:03.369Z,19.76
2018-02-12T12:51:03.328Z,19.75
2018-02-12T12:52:03.332Z,19.74
2018-02-12T12:53:03.322Z,19.78
2018-02-12T12:54:03.320Z,19.79
2018-02-12T12:55:03.351Z,19.79
2018-02-12T12:56:03.384Z,19.79
2018-02-12T12:57:03.325Z,19.79
2018-02-12T12:58:03.332Z,19.8
2018-02-12T12:59:03.435Z,19.81
2018-02-12T13:00:03.352Z,19.81
2018-02-12T13:01:03.368Z,19.82
2018-02-12T13:02:03.328Z,19.82
2018-02-12T13:03:03.333Z,19.82
2018-02-12T13:04:03.373Z,19.82
2018-02-12T13:05:03.438Z,19.82
2018-02-12T13:06:03.353Z,19.83
2018-02-12T13:07:03.344Z,19.83
2018-02-12T13:07:34.726Z,19.89
2018-02-12T13:08:34.563Z,19.84
2018-02-12T13:09:34.563Z,19.84
2018-02-12T13:10:34.676Z,19.85
2018-02-12T13:11:34.563Z,19.85
2018-02-12T13:12:34.586Z,19.85
2018-02-12T13:13:34.628Z,19.83
2018-02-12T13:14:34.647Z,19.81
2018-02-12T13:15:34.584Z,19.8